sensor_id;sensor_type;location;lat;lon;timestamp;P1;durP1;ratioP1;P2;durP2;ratioP2
64515;SDS011;50891;37.380;-122.076;2022-08-01T00:01:12;1.90;;;1.70;;
64515;SDS011;50891;37.380;-122.076;2022-08-01T00:03:38;2.22;;;1.65;;
64515;SDS011;50891;37.380;-122.076;2022-08-01T00:06:04;1.63;;;1.52;;
64515;SDS011;50891;37.380;-122.076;2022-08-01T00:08:30;2.42;;;1.80;;
64515;SDS011;50891;37.380;-122.076;2022-08-01T00:10:57;3.10;;;1.90;;
64515;SDS011;50891;37.380;-122.076;2022-08-01T00:13:23;2.33;;;1.90;;
64515;SDS011;50891;37.380;-122.076;2022-08-01T00:15:49;2.00;;;1.60;;
64515;SDS011;50891;37.380;-122.076;2022-08-01T00:18:15;3.60;;;1.85;;
64515;SDS011;50891;37.380;-122.076;2022-08-01T00:20:41;2.35;;;1.90;;
64515;SDS011;50891;37.380;-122.076;2022-08-01T00:23:07;2.33;;;1.80;;
64515;SDS011;50891;37.380;-122.076;2022-08-01T00:25:34;4.50;;;1.90;;
64515;SDS011;50891;37.380;-122.076;2022-08-01T00:28:00;4.30;;;1.70;;
64515;SDS011;50891;37.380;-122.076;2022-08-01T00:30:27;2.03;;;1.70;;
64515;SDS011;50891;37.380;-122.076;2022-08-01T00:32:53;1.83;;;1.60;;
64515;SDS011;50891;37.380;-122.076;2022-08-01T00:35:19;3.30;;;1.70;;
64515;SDS011;50891;37.380;-122.076;2022-08-01T00:37:45;1.77;;;1.38;;
64515;SDS011;50891;37.380;-122.076;2022-08-01T00:40:11;1.92;;;1.55;;
64515;SDS011;50891;37.380;-122.076;2022-08-01T00:42:37;2.22;;;1.58;;
64515;SDS011;50891;37.380;-122.076;2022-08-01T00:45:04;2.30;;;1.60;;
64515;SDS011;50891;37.380;-122.076;2022-08-01T00:47:30;2.20;;;1.60;;
64515;SDS011;50891;37.380;-122.076;2022-08-01T00:49:56;2.28;;;1.60;;
64515;SDS011;50891;37.380;-122.076;2022-08-01T00:52:23;1.75;;;1.38;;
64515;SDS011;50891;37.380;-122.076;2022-08-01T00:54:49;2.28;;;1.45;;
64515;SDS011;50891;37.380;-122.076;2022-08-01T00:57:16;3.05;;;1.70;;
64515;SDS011;50891;37.380;-122.076;2022-08-01T00:59:42;2.80;;;1.60;;
64515;SDS011;50891;37.380;-122.076;2022-08-01T01:02:09;2.15;;;1.40;;
64515;SDS011;50891;37.380;-122.076;2022-08-01T01:04:35;2.45;;;1.60;;
64515;SDS011;50891;37.380;-122.076;2022-08-01T01:13:09;2.28;;;1.55;;
64515;SDS011;50891;37.380;-122.076;2022-08-01T01:15:55;2.75;;;1.58;;
64515;SDS011;50891;37.380;-122.076;2022-08-01T01:18:29;2.22;;;1.60;;
64515;SDS011;50891;37.380;-122.076;2022-08-01T01:23:54;2.67;;;1.90;;
64515;SDS011;50891;37.380;-122.076;2022-08-01T01:29:25;2.90;;;1.85;;
64515;SDS011;50891;37.380;-122.076;2022-08-01T01:32:02;3.33;;;2.00;;
64515;SDS011;50891;37.380;-122.076;2022-08-01T01:34:30;6.47;;;4.25;;
64515;SDS011;50891;37.380;-122.076;2022-08-01T01:37:01;5.17;;;3.30;;
64515;SDS011;50891;37.380;-122.076;2022-08-01T01:39:30;4.85;;;3.17;;
64515;SDS011;50891;37.380;-122.076;2022-08-01T01:41:58;10.05;;;6.78;;
64515;SDS011;50891;37.380;-122.076;2022-08-01T01:44:25;10.20;;;7.47;;
64515;SDS011;50891;37.380;-122.076;2022-08-01T01:46:53;15.82;;;11.23;;
64515;SDS011;50891;37.380;-122.076;2022-08-01T01:49:23;12.57;;;8.15;;
64515;SDS011;50891;37.380;-122.076;2022-08-01T01:51:51;23.02;;;12.98;;
64515;SDS011;50891;37.380;-122.076;2022-08-01T01:54:21;18.80;;;9.27;;
64515;SDS011;50891;37.380;-122.076;2022-08-01T01:56:50;15.52;;;7.50;;
64515;SDS011;50891;37.380;-122.076;2022-08-01T01:59:19;20.98;;;8.05;;
64515;SDS011;50891;37.380;-122.076;2022-08-01T02:01:51;19.95;;;9.18;;
64515;SDS011;50891;37.380;-122.076;2022-08-01T02:04:19;17.92;;;9.68;;
64515;SDS011;50891;37.380;-122.076;2022-08-01T02:06:47;12.43;;;6.33;;
64515;SDS011;50891;37.380;-122.076;2022-08-01T02:09:17;10.13;;;5.40;;
64515;SDS011;50891;37.380;-122.076;2022-08-01T02:11:46;11.00;;;4.90;;
64515;SDS011;50891;37.380;-122.076;2022-08-01T02:14:14;7.20;;;3.80;;
64515;SDS011;50891;37.380;-122.076;2022-08-01T02:16:44;7.10;;;3.28;;
64515;SDS011;50891;37.380;-122.076;2022-08-01T02:19:18;5.15;;;2.75;;
64515;SDS011;50891;37.380;-122.076;2022-08-01T02:22:01;5.00;;;2.80;;
64515;SDS011;50891;37.380;-122.076;2022-08-01T02:24:39;5.72;;;2.10;;
64515;SDS011;50891;37.380;-122.076;2022-08-01T02:27:14;2.92;;;1.70;;
64515;SDS011;50891;37.380;-122.076;2022-08-01T02:32:58;2.23;;;1.50;;
64515;SDS011;50891;37.380;-122.076;2022-08-01T02:35:28;1.90;;;1.50;;
64515;SDS011;50891;37.380;-122.076;2022-08-01T02:37:57;2.33;;;1.63;;
64515;SDS011;50891;37.380;-122.076;2022-08-01T02:40:26;2.70;;;1.75;;
64515;SDS011;50891;37.380;-122.076;2022-08-01T02:42:55;3.17;;;1.80;;
64515;SDS011;50891;37.380;-122.076;2022-08-01T02:45:25;2.17;;;1.52;;
64515;SDS011;50891;37.380;-122.076;2022-08-01T02:47:54;2.22;;;1.60;;
64515;SDS011;50891;37.380;-122.076;2022-08-01T02:50:24;2.25;;;1.52;;
64515;SDS011;50891;37.380;-122.076;2022-08-01T02:52:53;2.58;;;1.60;;
64515;SDS011;50891;37.380;-122.076;2022-08-01T02:55:22;2.17;;;1.52;;
64515;SDS011;50891;37.380;-122.076;2022-08-01T02:57:50;2.30;;;1.50;;
64515;SDS011;50891;37.380;-122.076;2022-08-01T03:00:19;2.45;;;1.40;;
64515;SDS011;50891;37.380;-122.076;2022-08-01T03:02:45;3.22;;;1.40;;
64515;SDS011;50891;37.380;-122.076;2022-08-01T03:05:15;2.20;;;1.50;;
64515;SDS011;50891;37.380;-122.076;2022-08-01T03:07:43;2.28;;;1.35;;
64515;SDS011;50891;37.380;-122.076;2022-08-01T03:10:10;2.27;;;1.40;;
64515;SDS011;50891;37.380;-122.076;2022-08-01T03:12:38;2.38;;;1.40;;
64515;SDS011;50891;37.380;-122.076;2022-08-01T03:15:06;2.22;;;1.25;;
64515;SDS011;50891;37.380;-122.076;2022-08-01T03:17:35;1.92;;;1.40;;
64515;SDS011;50891;37.380;-122.076;2022-08-01T03:20:03;2.92;;;1.48;;
64515;SDS011;50891;37.380;-122.076;2022-08-01T03:22:30;1.77;;;1.40;;
64515;SDS011;50891;37.380;-122.076;2022-08-01T03:24:59;2.08;;;1.38;;
64515;SDS011;50891;37.380;-122.076;2022-08-01T03:27:28;2.33;;;1.50;;
64515;SDS011;50891;37.380;-122.076;2022-08-01T03:29:56;2.40;;;1.50;;
64515;SDS011;50891;37.380;-122.076;2022-08-01T03:32:23;2.33;;;1.40;;
64515;SDS011;50891;37.380;-122.076;2022-08-01T03:34:52;1.83;;;1.35;;
64515;SDS011;50891;37.380;-122.076;2022-08-01T03:37:23;2.33;;;1.42;;
64515;SDS011;50891;37.380;-122.076;2022-08-01T03:39:54;2.67;;;1.53;;
64515;SDS011;50891;37.380;-122.076;2022-08-01T03:42:23;2.20;;;1.50;;
64515;SDS011;50891;37.380;-122.076;2022-08-01T03:44:54;2.88;;;1.50;;
64515;SDS011;50891;37.380;-122.076;2022-08-01T03:47:26;2.80;;;1.70;;
64515;SDS011;50891;37.380;-122.076;2022-08-01T03:49:57;2.45;;;1.65;;
64515;SDS011;50891;37.380;-122.076;2022-08-01T03:52:25;2.00;;;1.70;;
64515;SDS011;50891;37.380;-122.076;2022-08-01T03:54:55;2.97;;;1.60;;
64515;SDS011;50891;37.380;-122.076;2022-08-01T03:57:23;2.08;;;1.70;;
64515;SDS011;50891;37.380;-122.076;2022-08-01T03:59:53;2.42;;;1.77;;
64515;SDS011;50891;37.380;-122.076;2022-08-01T04:02:23;2.38;;;1.70;;
64515;SDS011;50891;37.380;-122.076;2022-08-01T04:04:50;2.67;;;1.70;;
64515;SDS011;50891;37.380;-122.076;2022-08-01T04:07:25;2.13;;;1.73;;
64515;SDS011;50891;37.380;-122.076;2022-08-01T04:09:54;2.72;;;1.80;;
64515;SDS011;50891;37.380;-122.076;2022-08-01T04:12:20;2.75;;;2.00;;
64515;SDS011;50891;37.380;-122.076;2022-08-01T04:14:47;3.05;;;2.10;;
64515;SDS011;50891;37.380;-122.076;2022-08-01T04:17:14;2.35;;;1.95;;
64515;SDS011;50891;37.380;-122.076;2022-08-01T04:19:41;2.90;;;2.10;;
64515;SDS011;50891;37.380;-122.076;2022-08-01T04:22:08;3.90;;;2.33;;
64515;SDS011;50891;37.380;-122.076;2022-08-01T04:24:36;2.65;;;2.00;;
64515;SDS011;50891;37.380;-122.076;2022-08-01T04:27:05;2.73;;;2.00;;
64515;SDS011;50891;37.380;-122.076;2022-08-01T04:29:37;3.05;;;2.10;;
64515;SDS011;50891;37.380;-122.076;2022-08-01T04:32:05;3.22;;;2.08;;
64515;SDS011;50891;37.380;-122.076;2022-08-01T04:34:34;2.70;;;2.20;;
64515;SDS011;50891;37.380;-122.076;2022-08-01T04:37:05;2.85;;;2.00;;
64515;SDS011;50891;37.380;-122.076;2022-08-01T04:39:35;3.03;;;2.20;;
64515;SDS011;50891;37.380;-122.076;2022-08-01T04:42:04;3.17;;;2.25;;
64515;SDS011;50891;37.380;-122.076;2022-08-01T04:44:32;3.50;;;2.10;;
64515;SDS011;50891;37.380;-122.076;2022-08-01T04:47:01;3.80;;;2.25;;
64515;SDS011;50891;37.380;-122.076;2022-08-01T04:49:34;4.40;;;2.30;;
64515;SDS011;50891;37.380;-122.076;2022-08-01T04:52:00;4.18;;;2.30;;
64515;SDS011;50891;37.380;-122.076;2022-08-01T04:54:27;4.07;;;2.30;;
64515;SDS011;50891;37.380;-122.076;2022-08-01T04:56:55;2.90;;;2.20;;
64515;SDS011;50891;37.380;-122.076;2022-08-01T04:59:28;4.07;;;2.40;;
64515;SDS011;50891;37.380;-122.076;2022-08-01T05:02:08;3.88;;;2.40;;
64515;SDS011;50891;37.380;-122.076;2022-08-01T05:04:44;3.90;;;2.40;;
64515;SDS011;50891;37.380;-122.076;2022-08-01T05:07:11;3.05;;;2.22;;
64515;SDS011;50891;37.380;-122.076;2022-08-01T05:09:39;3.27;;;2.30;;
64515;SDS011;50891;37.380;-122.076;2022-08-01T05:12:11;3.78;;;2.40;;
64515;SDS011;50891;37.380;-122.076;2022-08-01T05:14:37;3.72;;;2.40;;
64515;SDS011;50891;37.380;-122.076;2022-08-01T05:17:05;4.57;;;2.70;;
64515;SDS011;50891;37.380;-122.076;2022-08-01T05:19:32;3.72;;;2.60;;
64515;SDS011;50891;37.380;-122.076;2022-08-01T05:22:00;3.50;;;2.42;;
64515;SDS011;50891;37.380;-122.076;2022-08-01T05:24:30;3.60;;;2.58;;
64515;SDS011;50891;37.380;-122.076;2022-08-01T05:26:57;3.63;;;2.55;;
64515;SDS011;50891;37.380;-122.076;2022-08-01T05:29:24;3.97;;;2.70;;
64515;SDS011;50891;37.380;-122.076;2022-08-01T05:31:51;4.83;;;2.77;;
64515;SDS011;50891;37.380;-122.076;2022-08-01T05:34:18;3.53;;;2.50;;
64515;SDS011;50891;37.380;-122.076;2022-08-01T05:36:45;4.30;;;2.78;;
64515;SDS011;50891;37.380;-122.076;2022-08-01T05:39:12;3.65;;;2.63;;
64515;SDS011;50891;37.380;-122.076;2022-08-01T05:41:39;4.10;;;2.90;;
64515;SDS011;50891;37.380;-122.076;2022-08-01T05:44:06;4.97;;;2.90;;
64515;SDS011;50891;37.380;-122.076;2022-08-01T05:46:33;4.03;;;2.70;;
64515;SDS011;50891;37.380;-122.076;2022-08-01T05:49:00;4.83;;;2.70;;
64515;SDS011;50891;37.380;-122.076;2022-08-01T05:51:27;4.15;;;2.70;;
64515;SDS011;50891;37.380;-122.076;2022-08-01T05:53:53;4.07;;;2.80;;
64515;SDS011;50891;37.380;-122.076;2022-08-01T05:56:20;3.80;;;2.72;;
64515;SDS011;50891;37.380;-122.076;2022-08-01T05:58:47;5.13;;;2.80;;
64515;SDS011;50891;37.380;-122.076;2022-08-01T06:01:14;4.00;;;2.70;;
64515;SDS011;50891;37.380;-122.076;2022-08-01T06:03:41;3.95;;;2.80;;
64515;SDS011;50891;37.380;-122.076;2022-08-01T06:06:07;5.43;;;2.80;;
64515;SDS011;50891;37.380;-122.076;2022-08-01T06:08:34;3.67;;;2.60;;
64515;SDS011;50891;37.380;-122.076;2022-08-01T06:11:00;4.05;;;2.67;;
64515;SDS011;50891;37.380;-122.076;2022-08-01T06:13:26;3.90;;;2.60;;
64515;SDS011;50891;37.380;-122.076;2022-08-01T06:15:53;4.28;;;2.75;;
64515;SDS011;50891;37.380;-122.076;2022-08-01T06:18:19;3.78;;;2.67;;
64515;SDS011;50891;37.380;-122.076;2022-08-01T06:20:46;3.95;;;2.90;;
64515;SDS011;50891;37.380;-122.076;2022-08-01T06:23:12;4.45;;;2.90;;
64515;SDS011;50891;37.380;-122.076;2022-08-01T06:25:41;4.95;;;3.03;;
64515;SDS011;50891;37.380;-122.076;2022-08-01T06:28:08;6.05;;;3.20;;
64515;SDS011;50891;37.380;-122.076;2022-08-01T06:30:35;6.50;;;3.33;;
64515;SDS011;50891;37.380;-122.076;2022-08-01T06:33:01;6.70;;;3.28;;
64515;SDS011;50891;37.380;-122.076;2022-08-01T06:35:28;5.82;;;3.28;;
64515;SDS011;50891;37.380;-122.076;2022-08-01T06:37:55;5.28;;;3.20;;
64515;SDS011;50891;37.380;-122.076;2022-08-01T06:40:24;6.57;;;3.20;;
64515;SDS011;50891;37.380;-122.076;2022-08-01T06:42:51;6.60;;;3.20;;
64515;SDS011;50891;37.380;-122.076;2022-08-01T06:45:17;5.95;;;3.30;;
64515;SDS011;50891;37.380;-122.076;2022-08-01T06:47:44;5.80;;;3.08;;
64515;SDS011;50891;37.380;-122.076;2022-08-01T06:50:10;6.53;;;3.30;;
64515;SDS011;50891;37.380;-122.076;2022-08-01T06:52:39;6.03;;;3.08;;
64515;SDS011;50891;37.380;-122.076;2022-08-01T06:55:06;4.18;;;3.10;;
64515;SDS011;50891;37.380;-122.076;2022-08-01T06:57:33;5.38;;;3.03;;
64515;SDS011;50891;37.380;-122.076;2022-08-01T07:00:03;4.45;;;3.00;;
64515;SDS011;50891;37.380;-122.076;2022-08-01T07:02:36;6.25;;;3.10;;
64515;SDS011;50891;37.380;-122.076;2022-08-01T07:05:02;4.90;;;2.90;;
64515;SDS011;50891;37.380;-122.076;2022-08-01T07:07:29;4.40;;;3.00;;
64515;SDS011;50891;37.380;-122.076;2022-08-01T07:09:56;5.40;;;2.83;;
64515;SDS011;50891;37.380;-122.076;2022-08-01T07:12:22;5.60;;;3.00;;
64515;SDS011;50891;37.380;-122.076;2022-08-01T07:14:48;4.80;;;3.08;;
64515;SDS011;50891;37.380;-122.076;2022-08-01T07:17:18;5.55;;;3.00;;
64515;SDS011;50891;37.380;-122.076;2022-08-01T07:19:46;4.63;;;3.00;;
64515;SDS011;50891;37.380;-122.076;2022-08-01T07:22:12;4.53;;;2.73;;
64515;SDS011;50891;37.380;-122.076;2022-08-01T07:24:41;4.97;;;2.90;;
64515;SDS011;50891;37.380;-122.076;2022-08-01T07:27:08;4.20;;;2.72;;
64515;SDS011;50891;37.380;-122.076;2022-08-01T07:29:34;4.18;;;2.90;;
64515;SDS011;50891;37.380;-122.076;2022-08-01T07:32:00;4.40;;;2.80;;
64515;SDS011;50891;37.380;-122.076;2022-08-01T07:34:27;3.50;;;2.70;;
64515;SDS011;50891;37.380;-122.076;2022-08-01T07:36:53;4.10;;;2.97;;
64515;SDS011;50891;37.380;-122.076;2022-08-01T07:39:19;4.30;;;2.80;;
64515;SDS011;50891;37.380;-122.076;2022-08-01T07:41:46;4.82;;;2.80;;
64515;SDS011;50891;37.380;-122.076;2022-08-01T07:44:12;4.55;;;2.80;;
64515;SDS011;50891;37.380;-122.076;2022-08-01T07:46:39;5.20;;;2.80;;
64515;SDS011;50891;37.380;-122.076;2022-08-01T07:49:05;4.03;;;2.50;;
64515;SDS011;50891;37.380;-122.076;2022-08-01T07:51:31;4.80;;;2.60;;
64515;SDS011;50891;37.380;-122.076;2022-08-01T07:53:57;4.10;;;2.55;;
64515;SDS011;50891;37.380;-122.076;2022-08-01T07:56:24;4.18;;;2.60;;
64515;SDS011;50891;37.380;-122.076;2022-08-01T07:58:51;3.55;;;2.50;;
64515;SDS011;50891;37.380;-122.076;2022-08-01T08:01:17;4.47;;;2.70;;
64515;SDS011;50891;37.380;-122.076;2022-08-01T08:03:44;3.50;;;2.53;;
64515;SDS011;50891;37.380;-122.076;2022-08-01T08:06:11;5.63;;;2.67;;
64515;SDS011;50891;37.380;-122.076;2022-08-01T08:08:37;3.60;;;2.65;;
64515;SDS011;50891;37.380;-122.076;2022-08-01T08:11:04;3.70;;;2.70;;
64515;SDS011;50891;37.380;-122.076;2022-08-01T08:13:30;4.10;;;2.70;;
64515;SDS011;50891;37.380;-122.076;2022-08-01T08:15:56;3.92;;;2.38;;
64515;SDS011;50891;37.380;-122.076;2022-08-01T08:18:24;3.55;;;2.60;;
64515;SDS011;50891;37.380;-122.076;2022-08-01T08:20:50;3.45;;;2.60;;
64515;SDS011;50891;37.380;-122.076;2022-08-01T08:23:16;3.75;;;2.70;;
64515;SDS011;50891;37.380;-122.076;2022-08-01T08:26:01;4.95;;;2.70;;
64515;SDS011;50891;37.380;-122.076;2022-08-01T08:28:27;3.47;;;2.60;;
64515;SDS011;50891;37.380;-122.076;2022-08-01T08:30:53;3.30;;;2.50;;
64515;SDS011;50891;37.380;-122.076;2022-08-01T08:33:20;3.75;;;2.60;;
64515;SDS011;50891;37.380;-122.076;2022-08-01T08:35:46;4.05;;;2.60;;
64515;SDS011;50891;37.380;-122.076;2022-08-01T08:38:12;3.53;;;2.53;;
64515;SDS011;50891;37.380;-122.076;2022-08-01T08:40:39;3.53;;;2.63;;
64515;SDS011;50891;37.380;-122.076;2022-08-01T08:43:05;3.28;;;2.40;;
64515;SDS011;50891;37.380;-122.076;2022-08-01T08:45:32;3.72;;;2.70;;
64515;SDS011;50891;37.380;-122.076;2022-08-01T08:47:59;3.30;;;2.50;;
64515;SDS011;50891;37.380;-122.076;2022-08-01T08:50:26;3.53;;;2.45;;
64515;SDS011;50891;37.380;-122.076;2022-08-01T08:52:53;4.32;;;2.50;;
64515;SDS011;50891;37.380;-122.076;2022-08-01T08:55:21;3.65;;;2.40;;
64515;SDS011;50891;37.380;-122.076;2022-08-01T08:57:49;3.97;;;2.55;;
64515;SDS011;50891;37.380;-122.076;2022-08-01T09:00:18;3.30;;;2.60;;
64515;SDS011;50891;37.380;-122.076;2022-08-01T09:02:45;3.17;;;2.42;;
64515;SDS011;50891;37.380;-122.076;2022-08-01T09:05:14;3.70;;;2.60;;
64515;SDS011;50891;37.380;-122.076;2022-08-01T09:07:40;3.67;;;2.50;;
64515;SDS011;50891;37.380;-122.076;2022-08-01T09:10:07;3.80;;;2.60;;
64515;SDS011;50891;37.380;-122.076;2022-08-01T09:12:34;3.87;;;2.43;;
64515;SDS011;50891;37.380;-122.076;2022-08-01T09:15:02;4.25;;;2.50;;
64515;SDS011;50891;37.380;-122.076;2022-08-01T09:17:38;4.00;;;2.50;;
64515;SDS011;50891;37.380;-122.076;2022-08-01T09:20:05;3.80;;;2.50;;
64515;SDS011;50891;37.380;-122.076;2022-08-01T09:22:32;3.05;;;2.50;;
64515;SDS011;50891;37.380;-122.076;2022-08-01T09:25:06;3.28;;;2.50;;
64515;SDS011;50891;37.380;-122.076;2022-08-01T09:27:36;3.65;;;2.60;;
64515;SDS011;50891;37.380;-122.076;2022-08-01T09:30:08;3.45;;;2.53;;
64515;SDS011;50891;37.380;-122.076;2022-08-01T09:32:59;3.20;;;2.50;;
64515;SDS011;50891;37.380;-122.076;2022-08-01T09:35:29;3.13;;;2.33;;
64515;SDS011;50891;37.380;-122.076;2022-08-01T09:38:12;3.77;;;2.50;;
64515;SDS011;50891;37.380;-122.076;2022-08-01T09:43:19;3.80;;;2.50;;
64515;SDS011;50891;37.380;-122.076;2022-08-01T09:45:46;3.58;;;2.50;;
64515;SDS011;50891;37.380;-122.076;2022-08-01T09:48:13;3.40;;;2.45;;
64515;SDS011;50891;37.380;-122.076;2022-08-01T09:50:42;3.97;;;2.70;;
64515;SDS011;50891;37.380;-122.076;2022-08-01T09:53:10;4.28;;;2.40;;
64515;SDS011;50891;37.380;-122.076;2022-08-01T09:55:40;3.20;;;2.40;;
64515;SDS011;50891;37.380;-122.076;2022-08-01T09:58:06;3.13;;;2.50;;
64515;SDS011;50891;37.380;-122.076;2022-08-01T10:00:34;3.15;;;2.40;;
64515;SDS011;50891;37.380;-122.076;2022-08-01T10:05:46;3.10;;;2.50;;
64515;SDS011;50891;37.380;-122.076;2022-08-01T10:08:13;3.10;;;2.50;;
64515;SDS011;50891;37.380;-122.076;2022-08-01T10:10:39;2.90;;;2.30;;
64515;SDS011;50891;37.380;-122.076;2022-08-01T10:13:06;2.90;;;2.38;;
64515;SDS011;50891;37.380;-122.076;2022-08-01T10:15:34;2.95;;;2.40;;
64515;SDS011;50891;37.380;-122.076;2022-08-01T10:18:02;3.20;;;2.40;;
64515;SDS011;50891;37.380;-122.076;2022-08-01T10:20:32;3.72;;;2.40;;
64515;SDS011;50891;37.380;-122.076;2022-08-01T10:23:00;3.55;;;2.47;;
64515;SDS011;50891;37.380;-122.076;2022-08-01T10:25:29;3.50;;;2.40;;
64515;SDS011;50891;37.380;-122.076;2022-08-01T10:28:02;3.10;;;2.50;;
64515;SDS011;50891;37.380;-122.076;2022-08-01T10:30:41;3.20;;;2.40;;
64515;SDS011;50891;37.380;-122.076;2022-08-01T10:33:09;2.90;;;2.45;;
64515;SDS011;50891;37.380;-122.076;2022-08-01T10:35:37;2.92;;;2.40;;
64515;SDS011;50891;37.380;-122.076;2022-08-01T10:38:04;3.28;;;2.50;;
64515;SDS011;50891;37.380;-122.076;2022-08-01T10:40:31;2.97;;;2.42;;
64515;SDS011;50891;37.380;-122.076;2022-08-01T10:42:58;3.22;;;2.50;;
64515;SDS011;50891;37.380;-122.076;2022-08-01T10:45:25;3.23;;;2.40;;
64515;SDS011;50891;37.380;-122.076;2022-08-01T10:48:06;3.50;;;2.50;;
64515;SDS011;50891;37.380;-122.076;2022-08-01T10:50:44;2.80;;;2.37;;
64515;SDS011;50891;37.380;-122.076;2022-08-01T10:53:15;2.63;;;2.40;;
64515;SDS011;50891;37.380;-122.076;2022-08-01T10:56:04;3.00;;;2.30;;
64515;SDS011;50891;37.380;-122.076;2022-08-01T10:58:37;3.08;;;2.40;;
64515;SDS011;50891;37.380;-122.076;2022-08-01T11:01:15;3.03;;;2.50;;
64515;SDS011;50891;37.380;-122.076;2022-08-01T11:03:43;3.05;;;2.40;;
64515;SDS011;50891;37.380;-122.076;2022-08-01T11:06:26;2.95;;;2.40;;
64515;SDS011;50891;37.380;-122.076;2022-08-01T11:08:58;2.83;;;2.30;;
64515;SDS011;50891;37.380;-122.076;2022-08-01T11:11:28;3.17;;;2.23;;
64515;SDS011;50891;37.380;-122.076;2022-08-01T11:16:27;2.83;;;2.30;;
64515;SDS011;50891;37.380;-122.076;2022-08-01T11:18:54;2.45;;;2.20;;
64515;SDS011;50891;37.380;-122.076;2022-08-01T11:21:21;3.67;;;2.30;;
64515;SDS011;50891;37.380;-122.076;2022-08-01T11:23:51;3.13;;;2.60;;
64515;SDS011;50891;37.380;-122.076;2022-08-01T11:26:18;2.75;;;2.40;;
64515;SDS011;50891;37.380;-122.076;2022-08-01T11:28:46;3.08;;;2.30;;
64515;SDS011;50891;37.380;-122.076;2022-08-01T11:31:39;2.40;;;2.20;;
64515;SDS011;50891;37.380;-122.076;2022-08-01T11:34:06;3.22;;;2.30;;
64515;SDS011;50891;37.380;-122.076;2022-08-01T11:36:32;2.75;;;2.30;;
64515;SDS011;50891;37.380;-122.076;2022-08-01T11:41:32;2.50;;;2.27;;
64515;SDS011;50891;37.380;-122.076;2022-08-01T11:44:08;2.92;;;2.40;;
64515;SDS011;50891;37.380;-122.076;2022-08-01T11:49:32;3.33;;;2.42;;
64515;SDS011;50891;37.380;-122.076;2022-08-01T11:52:05;2.50;;;2.30;;
64515;SDS011;50891;37.380;-122.076;2022-08-01T11:54:41;2.63;;;2.20;;
64515;SDS011;50891;37.380;-122.076;2022-08-01T11:59:45;3.65;;;2.40;;
64515;SDS011;50891;37.380;-122.076;2022-08-01T12:04:51;3.15;;;2.40;;
64515;SDS011;50891;37.380;-122.076;2022-08-01T12:07:19;3.05;;;2.40;;
64515;SDS011;50891;37.380;-122.076;2022-08-01T12:09:46;2.90;;;2.38;;
64515;SDS011;50891;37.380;-122.076;2022-08-01T12:12:16;2.75;;;2.40;;
64515;SDS011;50891;37.380;-122.076;2022-08-01T12:14:44;3.42;;;2.53;;
64515;SDS011;50891;37.380;-122.076;2022-08-01T12:17:20;2.92;;;2.40;;
64515;SDS011;50891;37.380;-122.076;2022-08-01T12:19:53;2.72;;;2.40;;
64515;SDS011;50891;37.380;-122.076;2022-08-01T12:22:21;2.70;;;2.20;;
64515;SDS011;50891;37.380;-122.076;2022-08-01T12:24:50;2.75;;;2.40;;
64515;SDS011;50891;37.380;-122.076;2022-08-01T12:27:24;2.50;;;2.20;;
64515;SDS011;50891;37.380;-122.076;2022-08-01T12:29:55;2.40;;;2.20;;
64515;SDS011;50891;37.380;-122.076;2022-08-01T12:34:50;2.83;;;2.25;;
64515;SDS011;50891;37.380;-122.076;2022-08-01T12:37:17;2.53;;;2.30;;
64515;SDS011;50891;37.380;-122.076;2022-08-01T12:39:44;2.33;;;2.13;;
64515;SDS011;50891;37.380;-122.076;2022-08-01T12:42:12;2.58;;;2.20;;
64515;SDS011;50891;37.380;-122.076;2022-08-01T12:44:38;2.78;;;2.30;;
64515;SDS011;50891;37.380;-122.076;2022-08-01T12:47:06;2.60;;;2.20;;
64515;SDS011;50891;37.380;-122.076;2022-08-01T12:49:34;2.65;;;2.28;;
64515;SDS011;50891;37.380;-122.076;2022-08-01T12:52:02;3.10;;;2.22;;
64515;SDS011;50891;37.380;-122.076;2022-08-01T12:54:29;2.90;;;2.30;;
64515;SDS011;50891;37.380;-122.076;2022-08-01T12:56:55;2.90;;;2.38;;
64515;SDS011;50891;37.380;-122.076;2022-08-01T12:59:26;2.70;;;2.20;;
64515;SDS011;50891;37.380;-122.076;2022-08-01T13:01:54;2.67;;;2.20;;
64515;SDS011;50891;37.380;-122.076;2022-08-01T13:04:21;2.80;;;2.28;;
64515;SDS011;50891;37.380;-122.076;2022-08-01T13:06:48;2.40;;;2.10;;
64515;SDS011;50891;37.380;-122.076;2022-08-01T13:09:23;2.83;;;2.25;;
64515;SDS011;50891;37.380;-122.076;2022-08-01T13:11:49;2.75;;;2.30;;
64515;SDS011;50891;37.380;-122.076;2022-08-01T13:14:28;2.53;;;2.30;;
64515;SDS011;50891;37.380;-122.076;2022-08-01T13:16:54;3.00;;;2.13;;
64515;SDS011;50891;37.380;-122.076;2022-08-01T13:19:21;2.55;;;2.20;;
64515;SDS011;50891;37.380;-122.076;2022-08-01T13:22:06;2.40;;;2.20;;
64515;SDS011;50891;37.380;-122.076;2022-08-01T13:24:32;2.38;;;2.13;;
64515;SDS011;50891;37.380;-122.076;2022-08-01T13:27:00;2.67;;;2.30;;
64515;SDS011;50891;37.380;-122.076;2022-08-01T13:29:38;2.78;;;2.30;;
64515;SDS011;50891;37.380;-122.076;2022-08-01T13:32:15;2.90;;;2.33;;
64515;SDS011;50891;37.380;-122.076;2022-08-01T13:34:45;2.75;;;2.20;;
64515;SDS011;50891;37.380;-122.076;2022-08-01T13:37:11;2.33;;;2.13;;
64515;SDS011;50891;37.380;-122.076;2022-08-01T13:39:38;3.22;;;2.10;;
64515;SDS011;50891;37.380;-122.076;2022-08-01T13:42:09;2.20;;;2.00;;
64515;SDS011;50891;37.380;-122.076;2022-08-01T13:44:39;2.70;;;2.20;;
64515;SDS011;50891;37.380;-122.076;2022-08-01T13:47:07;2.30;;;2.10;;
64515;SDS011;50891;37.380;-122.076;2022-08-01T13:49:34;2.20;;;2.00;;
64515;SDS011;50891;37.380;-122.076;2022-08-01T13:52:00;3.50;;;2.20;;
64515;SDS011;50891;37.380;-122.076;2022-08-01T13:54:27;2.30;;;2.10;;
64515;SDS011;50891;37.380;-122.076;2022-08-01T13:56:53;2.30;;;2.10;;
64515;SDS011;50891;37.380;-122.076;2022-08-01T13:59:20;2.42;;;2.10;;
64515;SDS011;50891;37.380;-122.076;2022-08-01T14:01:47;2.72;;;2.20;;
64515;SDS011;50891;37.380;-122.076;2022-08-01T14:04:13;2.97;;;2.10;;
64515;SDS011;50891;37.380;-122.076;2022-08-01T14:06:39;2.95;;;2.33;;
64515;SDS011;50891;37.380;-122.076;2022-08-01T14:09:06;2.40;;;2.15;;
64515;SDS011;50891;37.380;-122.076;2022-08-01T14:11:32;2.50;;;2.10;;
64515;SDS011;50891;37.380;-122.076;2022-08-01T14:13:58;2.40;;;2.10;;
64515;SDS011;50891;37.380;-122.076;2022-08-01T14:16:25;2.47;;;2.15;;
64515;SDS011;50891;37.380;-122.076;2022-08-01T14:18:51;2.37;;;2.07;;
64515;SDS011;50891;37.380;-122.076;2022-08-01T14:21:17;2.20;;;2.00;;
64515;SDS011;50891;37.380;-122.076;2022-08-01T14:23:44;2.25;;;2.05;;
64515;SDS011;50891;37.380;-122.076;2022-08-01T14:26:10;2.63;;;2.10;;
64515;SDS011;50891;37.380;-122.076;2022-08-01T14:28:37;2.40;;;2.10;;
64515;SDS011;50891;37.380;-122.076;2022-08-01T14:31:04;2.30;;;2.10;;
64515;SDS011;50891;37.380;-122.076;2022-08-01T14:33:33;2.13;;;1.92;;
64515;SDS011;50891;37.380;-122.076;2022-08-01T14:36:00;2.70;;;2.20;;
64515;SDS011;50891;37.380;-122.076;2022-08-01T14:38:26;2.30;;;2.10;;
64515;SDS011;50891;37.380;-122.076;2022-08-01T14:40:52;2.65;;;2.20;;
64515;SDS011;50891;37.380;-122.076;2022-08-01T14:43:18;2.22;;;2.00;;
64515;SDS011;50891;37.380;-122.076;2022-08-01T14:45:45;2.37;;;2.00;;
64515;SDS011;50891;37.380;-122.076;2022-08-01T14:48:14;2.58;;;2.20;;
64515;SDS011;50891;37.380;-122.076;2022-08-01T14:50:42;2.10;;;1.90;;
64515;SDS011;50891;37.380;-122.076;2022-08-01T14:53:08;2.45;;;2.17;;